createdAt,value
2018-06-21T00:00:59.746Z,64.70
2018-06-21T00:03:28.948Z,64.80
2018-06-21T00:05:57.835Z,64.40
2018-06-21T00:08:26.625Z,64.50
2018-06-21T00:10:55.414Z,65.20
2018-06-21T00:13:24.407Z,65.10
2018-06-21T00:15:53.401Z,65.70
2018-06-21T00:18:22.190Z,65.90
2018-06-21T00:20:50.978Z,66.30
2018-06-21T00:23:19.769Z,66.30
2018-06-21T00:25:48.761Z,66.40
2018-06-21T00:28:17.550Z,66.30
2018-06-21T00:30:46.448Z,66.50
2018-06-21T00:33:15.233Z,66.60
2018-06-21T00:35:44.348Z,66.60
2018-06-21T00:38:13.426Z,66.50
2018-06-21T00:40:42.318Z,66.40
2018-06-21T00:43:11.210Z,66.50
2018-06-21T00:45:39.943Z,66.80
2018-06-21T00:48:08.782Z,67.00
2018-06-21T00:50:37.574Z,66.70
2018-06-21T00:53:06.466Z,66.80
2018-06-21T00:55:46.524Z,67.10
2018-06-21T00:58:15.310Z,67.00
2018-06-21T01:00:44.201Z,67.40
2018-06-21T01:03:13.044Z,67.50
2018-06-21T01:05:41.983Z,67.90
2018-06-21T01:08:10.772Z,67.70
2018-06-21T01:10:39.562Z,66.90
2018-06-21T01:13:08.452Z,67.20
2018-06-21T01:15:37.344Z,67.10
2018-06-21T01:18:06.202Z,67.20
2018-06-21T01:20:34.893Z,67.40
2018-06-21T01:23:03.701Z,67.60
2018-06-21T01:25:32.548Z,67.60
2018-06-21T01:28:01.353Z,67.50
2018-06-21T01:30:30.065Z,67.80
2018-06-21T01:32:58.889Z,67.90
2018-06-21T01:35:27.645Z,68.00
2018-06-21T01:37:56.434Z,68.20
2018-06-21T01:40:25.225Z,67.80
2018-06-21T01:42:54.145Z,68.10
2018-06-21T01:45:23.106Z,68.20
2018-06-21T01:47:51.826Z,68.90
2018-06-21T01:52:49.473Z,69.60
2018-06-21T01:55:18.189Z,68.60
2018-06-21T01:57:46.948Z,68.60
2018-06-21T02:00:15.737Z,68.80
2018-06-21T02:02:44.526Z,69.00
2018-06-21T02:05:13.417Z,68.90
2018-06-21T02:07:42.207Z,69.00
2018-06-21T02:10:10.878Z,69.00
2018-06-21T02:12:39.888Z,69.40
2018-06-21T02:15:08.835Z,69.70
2018-06-21T02:17:37.669Z,69.60
2018-06-21T02:20:06.562Z,69.70
2018-06-21T02:22:35.274Z,69.80
2018-06-21T02:25:04.070Z,69.90
2018-06-21T02:27:32.834Z,70.00
2018-06-21T02:30:01.617Z,70.00
2018-06-21T02:32:30.508Z,70.20
2018-06-21T02:34:59.498Z,70.10
2018-06-21T02:37:28.287Z,70.50
2018-06-21T02:39:57.075Z,70.50
2018-06-21T02:42:25.865Z,70.80
2018-06-21T02:44:54.653Z,70.70
2018-06-21T02:47:23.332Z,71.00
2018-06-21T02:49:52.136Z,71.00
2018-06-21T02:52:21.021Z,71.30
2018-06-21T02:54:49.738Z,71.30
2018-06-21T02:57:18.601Z,71.30
2018-06-21T02:59:47.594Z,71.50
2018-06-21T03:02:16.386Z,71.50
2018-06-21T03:04:45.217Z,71.40
2018-06-21T03:07:14.112Z,71.60
2018-06-21T03:09:42.878Z,71.50
2018-06-21T03:12:16.963Z,71.70
2018-06-21T03:14:45.854Z,71.50
2018-06-21T03:17:14.745Z,72.00
2018-06-21T03:19:43.535Z,72.10
2018-06-21T03:22:12.657Z,72.30
2018-06-21T03:24:41.522Z,72.50
2018-06-21T03:27:10.930Z,72.90
2018-06-21T03:29:40.019Z,72.80
2018-06-21T03:32:08.912Z,73.20
2018-06-21T03:34:37.804Z,73.10
2018-06-21T03:37:06.634Z,73.40
2018-06-21T03:39:35.412Z,74.30
2018-06-21T03:42:04.480Z,73.80
2018-06-21T03:44:33.294Z,73.50
2018-06-21T03:47:02.159Z,73.40
2018-06-21T03:49:30.949Z,73.30
2018-06-21T03:51:59.737Z,73.40
2018-06-21T03:54:28.526Z,73.50
2018-06-21T03:56:57.323Z,74.90
2018-06-21T03:59:26.141Z,76.10
2018-06-21T04:01:54.926Z,76.10
2018-06-21T04:04:23.713Z,76.10
2018-06-21T04:06:52.472Z,75.70
2018-06-21T04:09:21.185Z,75.60
2018-06-21T04:11:49.948Z,75.20
2018-06-21T04:14:18.836Z,75.10
2018-06-21T04:16:47.623Z,74.50
2018-06-21T04:19:16.412Z,74.00
2018-06-21T04:21:45.246Z,73.50
2018-06-21T04:24:14.195Z,73.40
2018-06-21T04:26:42.985Z,73.70
2018-06-21T04:29:11.978Z,72.30
2018-06-21T04:31:40.797Z,72.20
2018-06-21T04:34:09.558Z,72.20
2018-06-21T04:36:38.448Z,71.70
2018-06-21T04:39:08.359Z,71.70
2018-06-21T04:41:37.150Z,71.80
2018-06-21T04:44:05.866Z,71.80
2018-06-21T04:46:34.555Z,71.60
2018-06-21T04:49:03.279Z,71.40
2018-06-21T04:51:32.408Z,71.10
2018-06-21T04:54:01.191Z,70.60
2018-06-21T04:56:30.190Z,70.30
2018-06-21T04:58:58.980Z,69.80
2018-06-21T05:01:27.872Z,69.50
2018-06-21T05:03:57.106Z,69.30
2018-06-21T05:06:25.883Z,69.10
2018-06-21T05:08:54.647Z,68.80
2018-06-21T05:11:23.773Z,68.80
2018-06-21T05:13:52.635Z,68.50
2018-06-21T05:16:21.525Z,68.00
2018-06-21T05:18:50.417Z,68.20
2018-06-21T05:21:19.307Z,67.80
2018-06-21T05:23:48.098Z,67.40
2018-06-21T05:26:16.814Z,67.20
2018-06-21T05:28:45.406Z,67.80
2018-06-21T05:31:14.053Z,66.70
2018-06-21T05:33:42.941Z,66.50
2018-06-21T05:36:11.577Z,65.50
2018-06-21T05:38:40.197Z,65.60
2018-06-21T05:41:09.034Z,65.60
2018-06-21T05:43:37.627Z,65.20
2018-06-21T05:46:06.302Z,64.40
2018-06-21T05:48:34.989Z,64.50
2018-06-21T05:51:03.595Z,64.20
2018-06-21T05:53:32.228Z,63.50
2018-06-21T05:56:01.042Z,63.70
2018-06-21T05:58:29.637Z,63.10
2018-06-21T06:00:58.365Z,63.10
2018-06-21T06:03:27.008Z,63.50
2018-06-21T06:05:55.865Z,64.00
2018-06-21T06:08:24.570Z,63.90
2018-06-21T06:10:53.173Z,64.20
2018-06-21T06:13:21.833Z,63.70
2018-06-21T06:15:50.456Z,63.30
2018-06-21T06:18:19.041Z,62.80
2018-06-21T06:20:47.678Z,62.60
2018-06-21T06:23:16.264Z,62.00
2018-06-21T06:25:44.966Z,61.00
2018-06-21T06:28:13.540Z,59.90
2018-06-21T06:30:42.151Z,59.80
2018-06-21T06:33:10.817Z,59.30
2018-06-21T06:35:39.412Z,59.10
2018-06-21T06:38:08.060Z,58.70
2018-06-21T06:40:36.824Z,59.40
2018-06-21T06:43:05.555Z,59.30
2018-06-21T06:45:35.118Z,59.20
2018-06-21T06:48:03.958Z,58.50
2018-06-21T06:50:32.631Z,59.10
2018-06-21T06:53:01.364Z,58.60
2018-06-21T06:55:30.041Z,57.90
2018-06-21T06:57:58.669Z,58.60
2018-06-21T07:00:27.645Z,58.10
2018-06-21T07:02:56.497Z,57.80
2018-06-21T07:05:25.167Z,57.80
2018-06-21T07:07:53.972Z,57.60
2018-06-21T07:10:22.583Z,56.80
2018-06-21T07:12:51.270Z,56.20
2018-06-21T07:15:19.953Z,53.30
2018-06-21T07:20:17.271Z,50.60
2018-06-21T07:22:45.902Z,49.70
2018-06-21T07:25:14.510Z,48.60
2018-06-21T07:27:43.152Z,48.60
2018-06-21T07:30:11.936Z,48.50
2018-06-21T07:32:40.836Z,48.80
2018-06-21T07:35:09.437Z,48.40
2018-06-21T07:37:38.164Z,48.30
2018-06-21T07:40:07.788Z,47.20
2018-06-21T07:42:36.580Z,47.70
2018-06-21T07:45:05.411Z,47.90
2018-06-21T07:47:34.191Z,47.60
2018-06-21T07:50:03.013Z,46.60
2018-06-21T07:52:31.842Z,46.90
2018-06-21T07:55:01.429Z,46.60
2018-06-21T07:57:30.419Z,46.40
2018-06-21T07:59:59.146Z,47.10
2018-06-21T08:02:27.917Z,46.70
2018-06-21T08:04:56.604Z,46.50
2018-06-21T08:07:25.427Z,46.40
2018-06-21T08:09:54.057Z,46.60
2018-06-21T08:12:22.676Z,46.70
2018-06-21T08:14:51.441Z,46.70
2018-06-21T08:17:20.044Z,46.50
2018-06-21T08:19:49.065Z,46.60
2018-06-21T08:22:17.804Z,46.50
2018-06-21T08:24:46.419Z,46.90
2018-06-21T08:27:15.096Z,46.90
2018-06-21T08:29:43.892Z,46.60
2018-06-21T08:32:12.684Z,48.00
2018-06-21T08:34:41.317Z,46.60
2018-06-21T08:37:10.348Z,46.20
2018-06-21T08:39:38.994Z,46.20
2018-06-21T08:42:07.644Z,46.00
2018-06-21T08:44:36.239Z,46.30
2018-06-21T08:49:33.460Z,46.30
2018-06-21T08:52:02.216Z,46.10
2018-06-21T08:54:31.192Z,46.40
2018-06-21T08:57:00.047Z,46.20
2018-06-21T08:59:28.700Z,47.10
2018-06-21T09:01:57.438Z,46.50
2018-06-21T09:04:26.105Z,46.20
2018-06-21T09:06:54.736Z,46.90
2018-06-21T09:09:23.437Z,46.60
2018-06-21T09:11:52.083Z,46.80
2018-06-21T09:14:20.930Z,46.80
2018-06-21T09:16:49.564Z,46.50
2018-06-21T09:19:18.322Z,46.60
2018-06-21T09:21:46.936Z,46.00
2018-06-21T09:24:16.330Z,46.20
2018-06-21T09:26:45.065Z,46.00
2018-06-21T09:29:13.709Z,45.70
2018-06-21T09:31:42.304Z,46.20
2018-06-21T09:34:10.953Z,46.90
2018-06-21T09:36:41.232Z,47.20
2018-06-21T09:39:16.753Z,46.50
2018-06-21T09:41:51.084Z,46.60
2018-06-21T09:44:25.199Z,46.90
2018-06-21T09:46:59.174Z,47.40
2018-06-21T09:49:30.864Z,47.10
2018-06-21T09:54:29.743Z,46.70
2018-06-21T09:56:58.893Z,46.50
2018-06-21T09:59:28.288Z,46.50
2018-06-21T10:01:57.064Z,47.20
2018-06-21T10:04:25.916Z,47.50
2018-06-21T10:06:54.528Z,48.20
2018-06-21T10:09:23.224Z,48.10
2018-06-21T10:11:51.884Z,48.10
2018-06-21T10:14:20.869Z,47.50
2018-06-21T10:19:17.909Z,46.00
2018-06-21T10:21:46.542Z,46.20
2018-06-21T10:24:15.200Z,45.70
2018-06-21T10:26:43.941Z,45.20
2018-06-21T10:31:40.966Z,45.40
2018-06-21T10:34:09.763Z,45.00
2018-06-21T10:36:38.425Z,44.80
2018-06-21T10:39:09.578Z,43.50
2018-06-21T10:41:38.465Z,44.00
2018-06-21T10:44:07.110Z,44.10
2018-06-21T10:46:35.880Z,44.10
2018-06-21T10:49:04.678Z,43.20
2018-06-21T10:51:33.277Z,42.70
2018-06-21T10:54:02.126Z,42.70
2018-06-21T10:56:30.770Z,42.40
2018-06-21T10:58:59.416Z,42.50
2018-06-21T11:01:28.260Z,41.20
2018-06-21T11:03:56.940Z,40.00
2018-06-21T11:06:26.020Z,40.60
2018-06-21T11:08:54.812Z,41.40
2018-06-21T11:11:23.450Z,41.70
2018-06-21T11:13:52.213Z,42.10
2018-06-21T11:16:20.996Z,42.10
2018-06-21T11:18:49.670Z,42.30
2018-06-21T11:21:18.356Z,42.30
2018-06-21T11:23:47.187Z,44.20
2018-06-21T11:26:15.884Z,45.40
2018-06-21T11:28:44.588Z,45.50
2018-06-21T11:31:13.462Z,45.30
2018-06-21T11:33:42.094Z,45.10
2018-06-21T11:36:11.732Z,44.80
2018-06-21T11:38:40.458Z,44.70
2018-06-21T11:41:09.069Z,45.00
2018-06-21T11:43:37.730Z,45.20
2018-06-21T11:46:06.412Z,44.30
2018-06-21T11:48:35.054Z,44.40
2018-06-21T11:51:03.703Z,44.60
2018-06-21T11:53:32.625Z,45.00
2018-06-21T11:56:01.321Z,45.30
2018-06-21T11:58:29.951Z,45.10
2018-06-21T12:00:58.567Z,45.60
2018-06-21T12:03:27.281Z,45.90
2018-06-21T12:05:55.902Z,45.70
2018-06-21T12:10:53.328Z,46.00
2018-06-21T12:13:22.174Z,46.10
2018-06-21T12:15:50.809Z,46.20
2018-06-21T12:18:19.464Z,46.60
2018-06-21T12:20:48.075Z,46.10
2018-06-21T12:23:16.783Z,45.80
2018-06-21T12:25:45.430Z,45.70
2018-06-21T12:28:14.190Z,45.40
2018-06-21T12:30:42.994Z,45.60
2018-06-21T12:33:11.641Z,44.80
2018-06-21T12:35:40.602Z,44.50
2018-06-21T12:38:09.594Z,43.10
2018-06-21T12:40:38.699Z,43.20
2018-06-21T12:43:07.361Z,44.80
2018-06-21T12:45:36.067Z,46.70
2018-06-21T12:48:05.266Z,48.00
2018-06-21T12:50:33.981Z,49.50
2018-06-21T12:53:02.853Z,51.60
2018-06-21T12:55:31.545Z,52.10
2018-06-21T12:58:00.358Z,53.30
2018-06-21T13:00:29.377Z,53.60
2018-06-21T13:02:58.104Z,53.20
2018-06-21T13:05:26.779Z,53.10
2018-06-21T13:07:55.781Z,52.80
2018-06-21T13:10:35.781Z,52.50
2018-06-21T13:13:15.543Z,52.90
2018-06-21T13:15:44.266Z,52.80
2018-06-21T13:18:12.927Z,52.90
2018-06-21T13:20:41.689Z,52.60
2018-06-21T13:23:10.633Z,52.10
2018-06-21T13:25:39.220Z,51.30
2018-06-21T13:28:08.021Z,51.40
2018-06-21T13:30:36.777Z,52.20
2018-06-21T13:33:05.792Z,51.80
2018-06-21T13:35:34.514Z,52.40
2018-06-21T13:38:03.140Z,52.10
2018-06-21T13:40:31.949Z,52.10
2018-06-21T13:43:00.645Z,52.10
2018-06-21T13:45:29.289Z,51.90
2018-06-21T13:47:57.905Z,51.80
2018-06-21T13:50:26.695Z,52.60
2018-06-21T13:52:55.304Z,53.00
2018-06-21T13:55:24.113Z,53.00
2018-06-21T13:57:52.797Z,52.60
2018-06-21T14:00:21.466Z,52.40
2018-06-21T14:02:50.141Z,51.80
2018-06-21T14:05:19.018Z,52.30
2018-06-21T14:07:47.835Z,51.40
2018-06-21T14:10:16.429Z,51.60
2018-06-21T14:12:45.125Z,51.30
2018-06-21T14:15:13.893Z,52.10
2018-06-21T14:17:42.579Z,52.70
2018-06-21T14:20:11.340Z,52.50
2018-06-21T14:22:40.134Z,52.80
2018-06-21T14:25:08.852Z,53.50
2018-06-21T14:27:37.428Z,53.10
2018-06-21T14:30:06.130Z,54.70
2018-06-21T14:32:34.725Z,56.50
2018-06-21T14:35:03.369Z,55.30
2018-06-21T14:37:32.073Z,56.40
2018-06-21T14:40:00.677Z,56.60
2018-06-21T14:42:29.360Z,57.10
2018-06-21T14:44:57.936Z,56.70
2018-06-21T14:47:26.548Z,57.80
2018-06-21T14:49:55.178Z,57.10
2018-06-21T14:52:23.926Z,57.50
2018-06-21T14:54:52.589Z,57.70
2018-06-21T14:57:21.229Z,58.50
2018-06-21T14:59:49.847Z,58.80
2018-06-21T15:02:18.480Z,59.00
2018-06-21T15:04:47.117Z,61.40
2018-06-21T15:07:15.873Z,62.80
2018-06-21T15:09:44.897Z,64.90
2018-06-21T15:12:13.656Z,68.00
2018-06-21T15:14:42.266Z,69.40
2018-06-21T15:17:10.945Z,71.40
2018-06-21T15:19:39.733Z,71.90
2018-06-21T15:22:08.344Z,74.10
2018-06-21T15:24:36.997Z,74.50
2018-06-21T15:27:05.672Z,74.80
2018-06-21T15:29:34.495Z,74.20
2018-06-21T15:32:03.212Z,75.20
2018-06-21T15:34:32.018Z,75.40
2018-06-21T15:37:00.740Z,75.10
2018-06-21T15:39:29.381Z,75.60
2018-06-21T15:41:57.990Z,75.60
2018-06-21T15:44:26.696Z,76.40
2018-06-21T15:46:55.515Z,76.10
2018-06-21T15:49:24.314Z,74.70
2018-06-21T15:51:53.047Z,75.60
2018-06-21T15:54:21.713Z,75.30
2018-06-21T15:56:50.331Z,76.20
2018-06-21T15:59:18.936Z,75.40
2018-06-21T16:01:47.638Z,74.40
2018-06-21T16:04:16.277Z,75.60
2018-06-21T16:06:44.983Z,74.50
2018-06-21T16:09:13.577Z,73.40
2018-06-21T16:11:42.236Z,71.80
2018-06-21T16:14:10.884Z,72.10
2018-06-21T16:16:39.502Z,70.80
2018-06-21T16:19:08.152Z,71.40
2018-06-21T16:21:36.876Z,70.40
2018-06-21T16:24:05.566Z,70.30
2018-06-21T16:26:34.335Z,70.00
2018-06-21T16:29:03.052Z,70.20
2018-06-21T16:31:31.692Z,70.20
2018-06-21T16:34:00.285Z,68.80
2018-06-21T16:36:29.001Z,69.60
2018-06-21T16:38:57.596Z,70.00
2018-06-21T16:41:26.280Z,70.10
2018-06-21T16:43:54.912Z,70.30
2018-06-21T16:46:23.525Z,70.40
2018-06-21T16:48:52.176Z,70.30
2018-06-21T16:51:20.808Z,69.80
2018-06-21T16:53:49.498Z,69.60
2018-06-21T16:56:18.157Z,68.90
2018-06-21T16:58:46.736Z,68.80
2018-06-21T17:01:15.390Z,68.10
2018-06-21T17:03:44.233Z,68.40
2018-06-21T17:06:13.032Z,67.10
2018-06-21T17:08:41.750Z,65.20
2018-06-21T17:11:10.413Z,65.80
2018-06-21T17:13:39.294Z,63.60
2018-06-21T17:16:08.144Z,62.70
2018-06-21T17:18:37.145Z,63.40
2018-06-21T17:21:05.867Z,62.70
2018-06-21T17:23:34.756Z,61.20
2018-06-21T17:26:03.441Z,60.50
2018-06-21T17:28:32.133Z,62.30
2018-06-21T17:31:00.821Z,63.70
2018-06-21T17:33:29.485Z,64.00
2018-06-21T17:35:58.116Z,63.50
2018-06-21T17:38:26.807Z,62.60
2018-06-21T17:40:55.525Z,63.00
2018-06-21T17:43:24.137Z,62.00
2018-06-21T17:45:52.947Z,61.40
2018-06-21T17:48:21.635Z,59.40
2018-06-21T17:50:50.409Z,59.30
2018-06-21T17:53:19.200Z,57.60
2018-06-21T17:55:47.820Z,57.00
2018-06-21T17:58:16.468Z,57.30
2018-06-21T18:00:45.123Z,56.90
2018-06-21T18:03:14.353Z,56.20
2018-06-21T18:05:43.013Z,55.80
2018-06-21T18:08:11.736Z,55.50
2018-06-21T18:10:40.383Z,55.70
2018-06-21T18:13:09.024Z,55.30
2018-06-21T18:15:37.645Z,50.60
2018-06-21T18:18:06.456Z,46.90
2018-06-21T18:20:35.286Z,46.20
2018-06-21T18:23:04.020Z,46.30
2018-06-21T18:25:32.690Z,43.00
2018-06-21T18:28:02.197Z,42.50
2018-06-21T18:30:30.825Z,40.80
2018-06-21T18:32:59.429Z,41.00
2018-06-21T18:35:28.228Z,40.60
2018-06-21T18:37:57.025Z,41.30
2018-06-21T18:40:25.782Z,41.00
2018-06-21T18:42:54.394Z,41.40
2018-06-21T18:45:23.237Z,41.40
2018-06-21T18:47:51.954Z,41.20
2018-06-21T18:50:20.685Z,40.10
2018-06-21T18:52:49.738Z,40.60
2018-06-21T18:55:18.747Z,40.20
2018-06-21T18:57:47.643Z,40.80
2018-06-21T19:00:16.733Z,40.60
2018-06-21T19:02:45.368Z,41.10
2018-06-21T19:05:14.063Z,40.90
2018-06-21T19:07:43.505Z,41.20
2018-06-21T19:10:17.408Z,41.30
2018-06-21T19:12:46.119Z,41.40
2018-06-21T19:15:14.729Z,41.40
2018-06-21T19:17:43.693Z,41.80
2018-06-21T19:20:12.508Z,41.20
2018-06-21T19:22:41.244Z,41.90
2018-06-21T19:25:09.854Z,42.00
2018-06-21T19:27:39.359Z,42.10
2018-06-21T19:30:08.030Z,42.10
2018-06-21T19:32:37.526Z,42.20
2018-06-21T19:35:06.138Z,42.30
2018-06-21T19:37:34.879Z,42.80
2018-06-21T19:40:03.575Z,43.10
2018-06-21T19:42:32.345Z,42.90
2018-06-21T19:45:01.029Z,42.90
2018-06-21T19:47:30.641Z,43.30
2018-06-21T19:49:59.237Z,43.30
2018-06-21T19:52:27.910Z,43.40
2018-06-21T19:54:56.624Z,43.30
2018-06-21T19:57:25.273Z,43.30
2018-06-21T19:59:53.964Z,43.70
2018-06-21T20:02:26.115Z,43.80
2018-06-21T20:04:54.873Z,43.90
2018-06-21T20:07:23.536Z,44.10
2018-06-21T20:09:52.211Z,43.90
2018-06-21T20:12:20.896Z,44.40
2018-06-21T20:14:49.584Z,43.90
2018-06-21T20:17:18.448Z,44.30
2018-06-21T20:19:52.228Z,45.20
2018-06-21T20:22:20.920Z,45.00
2018-06-21T20:24:49.655Z,45.00
2018-06-21T20:27:18.539Z,45.50
2018-06-21T20:29:47.160Z,45.10
2018-06-21T20:32:15.744Z,45.60
2018-06-21T20:34:44.505Z,45.90
2018-06-21T20:37:15.293Z,45.60
2018-06-21T20:39:44.432Z,45.70
2018-06-21T20:42:13.146Z,46.20
2018-06-21T20:44:41.936Z,45.80
2018-06-21T20:47:10.618Z,46.40
2018-06-21T20:49:39.316Z,46.60
2018-06-21T20:52:12.294Z,46.80
2018-06-21T20:54:41.058Z,47.10
2018-06-21T20:57:09.721Z,46.80
2018-06-21T20:59:38.509Z,46.80
2018-06-21T21:02:07.323Z,47.10
2018-06-21T21:04:47.241Z,47.50
2018-06-21T21:07:15.963Z,47.80
2018-06-21T21:09:44.568Z,48.10
2018-06-21T21:12:13.298Z,48.60
2018-06-21T21:14:41.917Z,48.90
2018-06-21T21:17:10.574Z,49.40
2018-06-21T21:19:39.444Z,49.60
2018-06-21T21:30:33.018Z,50.50
2018-06-21T21:33:01.681Z,50.80
2018-06-21T21:35:30.596Z,50.90
2018-06-21T21:37:59.193Z,51.40
2018-06-21T21:40:27.833Z,51.80
2018-06-21T21:42:56.425Z,51.60
2018-06-21T21:45:25.316Z,51.50
2018-06-21T21:47:53.982Z,51.70
2018-06-21T21:50:22.642Z,52.00
2018-06-21T21:52:51.222Z,52.30
2018-06-21T21:55:19.828Z,52.00
2018-06-21T21:57:48.575Z,52.40
2018-06-21T22:00:51.574Z,53.30
2018-06-21T22:03:20.462Z,52.60
2018-06-21T22:05:49.088Z,53.10
2018-06-21T22:08:17.700Z,52.60
2018-06-21T22:10:47.226Z,52.80
2018-06-21T22:13:16.435Z,52.60
2018-06-21T22:15:45.422Z,53.30
2018-06-21T22:18:14.009Z,53.30
2018-06-21T22:20:42.640Z,53.50
2018-06-21T22:23:11.393Z,53.70
2018-06-21T22:25:40.301Z,53.40
2018-06-21T22:28:08.867Z,54.20
2018-06-21T22:30:37.552Z,54.10
2018-06-21T22:33:06.165Z,54.50
2018-06-21T22:35:34.758Z,54.80
2018-06-21T22:38:03.395Z,54.70
2018-06-21T22:40:32.183Z,54.70
2018-06-21T22:43:00.808Z,54.60
2018-06-21T22:45:29.568Z,54.90
2018-06-21T22:47:58.192Z,55.00
2018-06-21T22:50:26.760Z,55.30
2018-06-21T22:55:23.890Z,55.40
2018-06-21T22:57:52.577Z,55.40
2018-06-21T23:00:21.202Z,55.70
2018-06-21T23:02:49.816Z,55.70
2018-06-21T23:05:18.503Z,55.80
2018-06-21T23:07:47.167Z,56.10
2018-06-21T23:10:15.748Z,55.90
2018-06-21T23:15:12.762Z,56.70
2018-06-21T23:17:41.429Z,56.70
2018-06-21T23:20:10.216Z,56.60
2018-06-21T23:22:38.828Z,56.40
2018-06-21T23:25:07.424Z,56.50
2018-06-21T23:27:36.117Z,56.90
2018-06-21T23:30:05.006Z,57.00
2018-06-21T23:32:33.638Z,57.00
2018-06-21T23:35:02.229Z,56.80
2018-06-21T23:37:30.833Z,57.10
2018-06-21T23:39:59.477Z,56.90
2018-06-21T23:44:56.377Z,56.90
2018-06-21T23:47:24.981Z,57.40
2018-06-21T23:49:53.586Z,57.40
2018-06-21T23:52:22.244Z,57.30
2018-06-21T23:54:50.930Z,57.40
2018-06-21T23:57:19.541Z,57.60
2018-06-21T23:59:48.101Z,57.20
